sensor_id;sensor_type;location;lat;lon;timestamp;P1;durP1;ratioP1;P2;durP2;ratioP2
1545;SDS011;766;51.502;9.752;2023-03-17T00:01:56;5.65;;;2.67;;
1545;SDS011;766;51.502;9.752;2023-03-17T00:04:25;6.53;;;2.90;;
1545;SDS011;766;51.502;9.752;2023-03-17T00:06:54;7.35;;;4.00;;
1545;SDS011;766;51.502;9.752;2023-03-17T00:09:23;3.92;;;2.75;;
1545;SDS011;766;51.502;9.752;2023-03-17T00:11:51;3.15;;;2.50;;
1545;SDS011;766;51.502;9.752;2023-03-17T00:14:21;4.38;;;2.88;;
1545;SDS011;766;51.502;9.752;2023-03-17T00:16:50;4.68;;;2.63;;
1545;SDS011;766;51.502;9.752;2023-03-17T00:19:21;4.60;;;2.88;;
1545;SDS011;766;51.502;9.752;2023-03-17T00:21:53;4.85;;;3.10;;
1545;SDS011;766;51.502;9.752;2023-03-17T00:24:22;3.85;;;2.80;;
1545;SDS011;766;51.502;9.752;2023-03-17T00:26:50;5.88;;;2.83;;
1545;SDS011;766;51.502;9.752;2023-03-17T00:29:18;5.35;;;2.15;;
1545;SDS011;766;51.502;9.752;2023-03-17T00:31:48;4.03;;;2.72;;
1545;SDS011;766;51.502;9.752;2023-03-17T00:34:17;4.78;;;2.70;;
1545;SDS011;766;51.502;9.752;2023-03-17T00:36:47;4.78;;;2.78;;
1545;SDS011;766;51.502;9.752;2023-03-17T00:39:17;4.00;;;2.78;;
1545;SDS011;766;51.502;9.752;2023-03-17T00:41:46;3.53;;;2.72;;
1545;SDS011;766;51.502;9.752;2023-03-17T00:44:14;4.93;;;2.65;;
1545;SDS011;766;51.502;9.752;2023-03-17T00:46:43;5.45;;;3.25;;
1545;SDS011;766;51.502;9.752;2023-03-17T00:49:16;8.13;;;3.13;;
1545;SDS011;766;51.502;9.752;2023-03-17T00:51:47;4.50;;;3.05;;
1545;SDS011;766;51.502;9.752;2023-03-17T00:54:16;3.30;;;2.60;;
1545;SDS011;766;51.502;9.752;2023-03-17T00:56:46;3.67;;;2.80;;
1545;SDS011;766;51.502;9.752;2023-03-17T00:59:21;6.07;;;3.13;;
1545;SDS011;766;51.502;9.752;2023-03-17T01:01:53;6.10;;;2.90;;
1545;SDS011;766;51.502;9.752;2023-03-17T01:04:23;3.45;;;2.83;;
1545;SDS011;766;51.502;9.752;2023-03-17T01:06:52;6.35;;;3.08;;
1545;SDS011;766;51.502;9.752;2023-03-17T01:09:21;4.70;;;2.88;;
1545;SDS011;766;51.502;9.752;2023-03-17T01:11:52;7.32;;;3.53;;
1545;SDS011;766;51.502;9.752;2023-03-17T01:14:21;8.75;;;3.13;;
1545;SDS011;766;51.502;9.752;2023-03-17T01:16:50;4.65;;;3.17;;
1545;SDS011;766;51.502;9.752;2023-03-17T01:19:20;6.22;;;3.28;;
1545;SDS011;766;51.502;9.752;2023-03-17T01:21:50;4.50;;;2.65;;
1545;SDS011;766;51.502;9.752;2023-03-17T01:24:19;7.00;;;3.47;;
1545;SDS011;766;51.502;9.752;2023-03-17T01:26:47;5.00;;;2.95;;
1545;SDS011;766;51.502;9.752;2023-03-17T01:29:16;5.13;;;3.33;;
1545;SDS011;766;51.502;9.752;2023-03-17T01:31:44;5.15;;;3.70;;
1545;SDS011;766;51.502;9.752;2023-03-17T01:34:13;6.03;;;3.10;;
1545;SDS011;766;51.502;9.752;2023-03-17T01:36:41;8.23;;;3.03;;
1545;SDS011;766;51.502;9.752;2023-03-17T01:39:11;4.65;;;3.03;;
1545;SDS011;766;51.502;9.752;2023-03-17T01:41:40;4.88;;;3.10;;
1545;SDS011;766;51.502;9.752;2023-03-17T01:44:12;5.43;;;3.05;;
1545;SDS011;766;51.502;9.752;2023-03-17T01:46:42;5.30;;;3.17;;
1545;SDS011;766;51.502;9.752;2023-03-17T01:49:13;3.63;;;2.85;;
1545;SDS011;766;51.502;9.752;2023-03-17T01:51:51;5.78;;;3.42;;
1545;SDS011;766;51.502;9.752;2023-03-17T01:54:27;4.95;;;3.10;;
1545;SDS011;766;51.502;9.752;2023-03-17T01:57:01;5.05;;;3.00;;
1545;SDS011;766;51.502;9.752;2023-03-17T01:59:35;4.38;;;3.00;;
1545;SDS011;766;51.502;9.752;2023-03-17T02:02:08;5.13;;;3.25;;
1545;SDS011;766;51.502;9.752;2023-03-17T02:04:40;3.88;;;2.88;;
1545;SDS011;766;51.502;9.752;2023-03-17T02:07:08;5.45;;;3.30;;
1545;SDS011;766;51.502;9.752;2023-03-17T02:09:39;4.72;;;2.78;;
1545;SDS011;766;51.502;9.752;2023-03-17T02:12:08;6.75;;;2.80;;
1545;SDS011;766;51.502;9.752;2023-03-17T02:14:38;6.55;;;3.22;;
1545;SDS011;766;51.502;9.752;2023-03-17T02:17:07;6.07;;;3.88;;
1545;SDS011;766;51.502;9.752;2023-03-17T02:19:35;7.40;;;3.20;;
1545;SDS011;766;51.502;9.752;2023-03-17T02:22:05;5.45;;;3.53;;
1545;SDS011;766;51.502;9.752;2023-03-17T02:24:36;4.70;;;3.10;;
1545;SDS011;766;51.502;9.752;2023-03-17T02:27:07;6.00;;;2.90;;
1545;SDS011;766;51.502;9.752;2023-03-17T02:29:39;8.10;;;3.30;;
1545;SDS011;766;51.502;9.752;2023-03-17T02:32:07;3.85;;;2.67;;
1545;SDS011;766;51.502;9.752;2023-03-17T02:34:37;4.68;;;3.10;;
1545;SDS011;766;51.502;9.752;2023-03-17T02:37:06;7.32;;;3.63;;
1545;SDS011;766;51.502;9.752;2023-03-17T02:39:35;4.68;;;2.60;;
1545;SDS011;766;51.502;9.752;2023-03-17T02:42:03;5.10;;;3.67;;
1545;SDS011;766;51.502;9.752;2023-03-17T02:44:32;6.40;;;3.25;;
1545;SDS011;766;51.502;9.752;2023-03-17T02:47:01;4.35;;;2.60;;
1545;SDS011;766;51.502;9.752;2023-03-17T02:49:29;5.35;;;2.90;;
1545;SDS011;766;51.502;9.752;2023-03-17T02:51:59;4.32;;;3.05;;
1545;SDS011;766;51.502;9.752;2023-03-17T02:54:29;4.15;;;2.67;;
1545;SDS011;766;51.502;9.752;2023-03-17T02:56:58;8.07;;;2.80;;
1545;SDS011;766;51.502;9.752;2023-03-17T02:59:27;6.35;;;3.75;;
1545;SDS011;766;51.502;9.752;2023-03-17T03:01:56;4.53;;;3.00;;
1545;SDS011;766;51.502;9.752;2023-03-17T03:04:25;5.78;;;3.25;;
1545;SDS011;766;51.502;9.752;2023-03-17T03:06:55;7.55;;;3.47;;
1545;SDS011;766;51.502;9.752;2023-03-17T03:09:23;5.20;;;3.00;;
1545;SDS011;766;51.502;9.752;2023-03-17T03:11:53;4.15;;;2.80;;
1545;SDS011;766;51.502;9.752;2023-03-17T03:14:21;5.18;;;3.28;;
1545;SDS011;766;51.502;9.752;2023-03-17T03:16:50;6.85;;;3.63;;
1545;SDS011;766;51.502;9.752;2023-03-17T03:19:18;6.80;;;3.70;;
1545;SDS011;766;51.502;9.752;2023-03-17T03:21:48;4.63;;;3.17;;
1545;SDS011;766;51.502;9.752;2023-03-17T03:24:16;4.28;;;3.40;;
1545;SDS011;766;51.502;9.752;2023-03-17T03:26:44;4.00;;;3.17;;
1545;SDS011;766;51.502;9.752;2023-03-17T03:29:14;4.47;;;3.38;;
1545;SDS011;766;51.502;9.752;2023-03-17T03:31:43;7.07;;;4.40;;
1545;SDS011;766;51.502;9.752;2023-03-17T03:34:13;5.85;;;3.75;;
1545;SDS011;766;51.502;9.752;2023-03-17T03:36:42;6.97;;;4.22;;
1545;SDS011;766;51.502;9.752;2023-03-17T03:39:10;4.18;;;3.17;;
1545;SDS011;766;51.502;9.752;2023-03-17T03:41:40;5.70;;;3.45;;
1545;SDS011;766;51.502;9.752;2023-03-17T03:44:09;4.13;;;3.17;;
1545;SDS011;766;51.502;9.752;2023-03-17T03:46:39;6.13;;;3.58;;
1545;SDS011;766;51.502;9.752;2023-03-17T03:49:07;4.57;;;3.25;;
1545;SDS011;766;51.502;9.752;2023-03-17T03:51:38;4.85;;;3.67;;
1545;SDS011;766;51.502;9.752;2023-03-17T03:54:06;5.15;;;3.33;;
1545;SDS011;766;51.502;9.752;2023-03-17T03:56:35;5.65;;;3.40;;
1545;SDS011;766;51.502;9.752;2023-03-17T03:59:03;5.63;;;3.47;;
1545;SDS011;766;51.502;9.752;2023-03-17T04:01:32;4.55;;;3.42;;
1545;SDS011;766;51.502;9.752;2023-03-17T04:04:05;5.07;;;3.35;;
1545;SDS011;766;51.502;9.752;2023-03-17T04:06:34;7.68;;;3.60;;
1545;SDS011;766;51.502;9.752;2023-03-17T04:09:02;5.72;;;3.53;;
1545;SDS011;766;51.502;9.752;2023-03-17T04:11:31;5.28;;;3.45;;
1545;SDS011;766;51.502;9.752;2023-03-17T04:13:59;5.40;;;3.53;;
1545;SDS011;766;51.502;9.752;2023-03-17T04:16:28;7.47;;;3.47;;
1545;SDS011;766;51.502;9.752;2023-03-17T04:18:56;5.60;;;3.25;;
1545;SDS011;766;51.502;9.752;2023-03-17T04:21:26;8.27;;;3.80;;
1545;SDS011;766;51.502;9.752;2023-03-17T04:23:54;6.10;;;3.20;;
1545;SDS011;766;51.502;9.752;2023-03-17T04:26:22;6.20;;;3.67;;
1545;SDS011;766;51.502;9.752;2023-03-17T04:28:51;5.53;;;3.85;;
1545;SDS011;766;51.502;9.752;2023-03-17T04:31:20;7.60;;;3.50;;
1545;SDS011;766;51.502;9.752;2023-03-17T04:33:48;6.60;;;3.63;;
1545;SDS011;766;51.502;9.752;2023-03-17T04:36:17;5.55;;;3.47;;
1545;SDS011;766;51.502;9.752;2023-03-17T04:38:48;5.70;;;3.63;;
1545;SDS011;766;51.502;9.752;2023-03-17T04:41:17;5.78;;;3.65;;
1545;SDS011;766;51.502;9.752;2023-03-17T04:43:46;7.40;;;3.80;;
1545;SDS011;766;51.502;9.752;2023-03-17T04:46:15;4.22;;;3.30;;
1545;SDS011;766;51.502;9.752;2023-03-17T04:48:44;6.45;;;3.80;;
1545;SDS011;766;51.502;9.752;2023-03-17T04:51:13;5.80;;;3.08;;
1545;SDS011;766;51.502;9.752;2023-03-17T04:53:43;5.22;;;3.20;;
1545;SDS011;766;51.502;9.752;2023-03-17T04:56:12;6.00;;;3.15;;
1545;SDS011;766;51.502;9.752;2023-03-17T04:58:41;4.80;;;2.85;;
1545;SDS011;766;51.502;9.752;2023-03-17T05:01:10;6.32;;;3.55;;
1545;SDS011;766;51.502;9.752;2023-03-17T05:03:39;5.25;;;2.78;;
1545;SDS011;766;51.502;9.752;2023-03-17T05:06:07;5.55;;;3.40;;
1545;SDS011;766;51.502;9.752;2023-03-17T05:08:36;6.63;;;3.85;;
1545;SDS011;766;51.502;9.752;2023-03-17T05:11:05;6.13;;;3.85;;
1545;SDS011;766;51.502;9.752;2023-03-17T05:13:35;5.40;;;3.28;;
1545;SDS011;766;51.502;9.752;2023-03-17T05:16:04;5.47;;;3.33;;
1545;SDS011;766;51.502;9.752;2023-03-17T05:18:34;5.18;;;3.20;;
1545;SDS011;766;51.502;9.752;2023-03-17T05:21:03;5.00;;;2.35;;
1545;SDS011;766;51.502;9.752;2023-03-17T05:23:33;5.28;;;3.20;;
1545;SDS011;766;51.502;9.752;2023-03-17T05:26:02;5.22;;;3.05;;
1545;SDS011;766;51.502;9.752;2023-03-17T05:28:30;4.72;;;3.00;;
1545;SDS011;766;51.502;9.752;2023-03-17T05:31:00;4.95;;;3.45;;
1545;SDS011;766;51.502;9.752;2023-03-17T05:33:29;5.55;;;3.47;;
1545;SDS011;766;51.502;9.752;2023-03-17T05:35:58;16.55;;;4.15;;
1545;SDS011;766;51.502;9.752;2023-03-17T05:38:27;4.55;;;3.20;;
1545;SDS011;766;51.502;9.752;2023-03-17T05:40:55;4.22;;;3.03;;
1545;SDS011;766;51.502;9.752;2023-03-17T05:43:24;5.28;;;2.88;;
1545;SDS011;766;51.502;9.752;2023-03-17T05:45:53;6.35;;;3.35;;
1545;SDS011;766;51.502;9.752;2023-03-17T05:48:22;7.57;;;3.08;;
1545;SDS011;766;51.502;9.752;2023-03-17T05:50:51;5.28;;;3.20;;
1545;SDS011;766;51.502;9.752;2023-03-17T05:53:21;4.10;;;3.10;;
1545;SDS011;766;51.502;9.752;2023-03-17T05:55:53;4.68;;;3.53;;
1545;SDS011;766;51.502;9.752;2023-03-17T05:58:27;3.90;;;3.05;;
1545;SDS011;766;51.502;9.752;2023-03-17T06:00:57;4.13;;;3.15;;
1545;SDS011;766;51.502;9.752;2023-03-17T06:03:27;6.72;;;3.40;;
1545;SDS011;766;51.502;9.752;2023-03-17T06:05:57;5.63;;;3.22;;
1545;SDS011;766;51.502;9.752;2023-03-17T06:08:25;6.97;;;3.38;;
1545;SDS011;766;51.502;9.752;2023-03-17T06:10:53;5.53;;;3.25;;
1545;SDS011;766;51.502;9.752;2023-03-17T06:13:22;5.78;;;2.97;;
1545;SDS011;766;51.502;9.752;2023-03-17T06:15:50;6.75;;;3.35;;
1545;SDS011;766;51.502;9.752;2023-03-17T06:18:21;5.45;;;2.90;;
1545;SDS011;766;51.502;9.752;2023-03-17T06:20:51;5.55;;;3.28;;
1545;SDS011;766;51.502;9.752;2023-03-17T06:23:20;4.28;;;2.95;;
1545;SDS011;766;51.502;9.752;2023-03-17T06:25:49;5.47;;;3.10;;
1545;SDS011;766;51.502;9.752;2023-03-17T06:28:18;6.18;;;3.20;;
1545;SDS011;766;51.502;9.752;2023-03-17T06:30:46;6.65;;;3.33;;
1545;SDS011;766;51.502;9.752;2023-03-17T06:33:14;5.03;;;3.38;;
1545;SDS011;766;51.502;9.752;2023-03-17T06:35:44;7.65;;;4.38;;
1545;SDS011;766;51.502;9.752;2023-03-17T06:38:14;15.82;;;6.80;;
1545;SDS011;766;51.502;9.752;2023-03-17T06:40:42;5.35;;;2.70;;
1545;SDS011;766;51.502;9.752;2023-03-17T06:43:11;3.33;;;2.42;;
1545;SDS011;766;51.502;9.752;2023-03-17T06:45:39;6.20;;;2.45;;
1545;SDS011;766;51.502;9.752;2023-03-17T06:48:08;4.07;;;2.30;;
1545;SDS011;766;51.502;9.752;2023-03-17T06:50:36;3.80;;;2.03;;
1545;SDS011;766;51.502;9.752;2023-03-17T06:53:05;3.78;;;2.15;;
1545;SDS011;766;51.502;9.752;2023-03-17T06:55:34;4.22;;;2.20;;
1545;SDS011;766;51.502;9.752;2023-03-17T06:58:03;4.30;;;2.10;;
1545;SDS011;766;51.502;9.752;2023-03-17T07:00:31;2.63;;;1.90;;
1545;SDS011;766;51.502;9.752;2023-03-17T07:02:59;4.07;;;2.28;;
1545;SDS011;766;51.502;9.752;2023-03-17T07:05:28;4.70;;;2.10;;
1545;SDS011;766;51.502;9.752;2023-03-17T07:07:57;6.53;;;1.92;;
1545;SDS011;766;51.502;9.752;2023-03-17T07:10:26;3.55;;;2.20;;
1545;SDS011;766;51.502;9.752;2023-03-17T07:12:56;2.67;;;1.73;;
1545;SDS011;766;51.502;9.752;2023-03-17T07:15:25;4.15;;;1.92;;
1545;SDS011;766;51.502;9.752;2023-03-17T07:17:53;2.60;;;1.50;;
1545;SDS011;766;51.502;9.752;2023-03-17T07:20:22;3.92;;;1.83;;
1545;SDS011;766;51.502;9.752;2023-03-17T07:22:50;5.00;;;2.08;;
1545;SDS011;766;51.502;9.752;2023-03-17T07:25:19;3.85;;;1.98;;
1545;SDS011;766;51.502;9.752;2023-03-17T07:27:47;4.55;;;2.38;;
1545;SDS011;766;51.502;9.752;2023-03-17T07:30:18;4.65;;;2.60;;
1545;SDS011;766;51.502;9.752;2023-03-17T07:32:47;4.40;;;2.78;;
1545;SDS011;766;51.502;9.752;2023-03-17T07:35:16;3.33;;;2.47;;
1545;SDS011;766;51.502;9.752;2023-03-17T07:37:45;3.60;;;2.33;;
1545;SDS011;766;51.502;9.752;2023-03-17T07:40:14;3.45;;;2.60;;
1545;SDS011;766;51.502;9.752;2023-03-17T07:42:44;2.72;;;2.22;;
1545;SDS011;766;51.502;9.752;2023-03-17T07:45:12;6.22;;;2.58;;
1545;SDS011;766;51.502;9.752;2023-03-17T07:47:42;3.65;;;2.15;;
1545;SDS011;766;51.502;9.752;2023-03-17T07:50:12;3.30;;;2.30;;
1545;SDS011;766;51.502;9.752;2023-03-17T07:52:40;4.43;;;2.75;;
1545;SDS011;766;51.502;9.752;2023-03-17T07:55:12;4.97;;;2.60;;
1545;SDS011;766;51.502;9.752;2023-03-17T07:57:45;3.83;;;2.70;;
1545;SDS011;766;51.502;9.752;2023-03-17T08:00:16;3.45;;;2.50;;
1545;SDS011;766;51.502;9.752;2023-03-17T08:02:47;3.17;;;2.10;;
1545;SDS011;766;51.502;9.752;2023-03-17T08:05:34;2.70;;;1.92;;
1545;SDS011;766;51.502;9.752;2023-03-17T08:08:03;2.72;;;1.90;;
1545;SDS011;766;51.502;9.752;2023-03-17T08:10:32;3.15;;;2.05;;
1545;SDS011;766;51.502;9.752;2023-03-17T08:13:01;3.83;;;2.20;;
1545;SDS011;766;51.502;9.752;2023-03-17T08:15:30;2.60;;;1.90;;
1545;SDS011;766;51.502;9.752;2023-03-17T08:18:00;3.15;;;2.00;;
1545;SDS011;766;51.502;9.752;2023-03-17T08:20:29;3.83;;;2.00;;
1545;SDS011;766;51.502;9.752;2023-03-17T08:22:58;2.25;;;1.48;;
1545;SDS011;766;51.502;9.752;2023-03-17T08:25:28;3.55;;;1.65;;
1545;SDS011;766;51.502;9.752;2023-03-17T08:28:05;3.00;;;1.83;;
1545;SDS011;766;51.502;9.752;2023-03-17T08:30:35;4.57;;;1.77;;
1545;SDS011;766;51.502;9.752;2023-03-17T08:33:05;5.07;;;1.50;;
1545;SDS011;766;51.502;9.752;2023-03-17T08:35:35;3.20;;;2.25;;
1545;SDS011;766;51.502;9.752;2023-03-17T08:38:03;2.03;;;1.50;;
1545;SDS011;766;51.502;9.752;2023-03-17T08:40:31;2.13;;;1.52;;
1545;SDS011;766;51.502;9.752;2023-03-17T08:43:00;2.28;;;1.60;;
1545;SDS011;766;51.502;9.752;2023-03-17T08:45:31;2.50;;;1.52;;
1545;SDS011;766;51.502;9.752;2023-03-17T08:48:00;1.80;;;1.30;;
1545;SDS011;766;51.502;9.752;2023-03-17T08:50:31;3.22;;;1.67;;
1545;SDS011;766;51.502;9.752;2023-03-17T08:53:01;2.85;;;1.80;;
1545;SDS011;766;51.502;9.752;2023-03-17T08:55:29;2.80;;;1.77;;
1545;SDS011;766;51.502;9.752;2023-03-17T08:57:59;1.83;;;1.30;;
1545;SDS011;766;51.502;9.752;2023-03-17T09:00:28;2.58;;;1.50;;
1545;SDS011;766;51.502;9.752;2023-03-17T09:02:56;3.15;;;1.60;;
1545;SDS011;766;51.502;9.752;2023-03-17T09:05:25;3.17;;;1.58;;
1545;SDS011;766;51.502;9.752;2023-03-17T09:07:56;4.28;;;1.80;;
1545;SDS011;766;51.502;9.752;2023-03-17T09:10:24;2.75;;;2.00;;
1545;SDS011;766;51.502;9.752;2023-03-17T09:12:52;3.65;;;1.67;;
1545;SDS011;766;51.502;9.752;2023-03-17T09:15:28;4.65;;;1.60;;
1545;SDS011;766;51.502;9.752;2023-03-17T09:17:58;3.35;;;1.70;;
1545;SDS011;766;51.502;9.752;2023-03-17T09:20:27;3.13;;;1.70;;
1545;SDS011;766;51.502;9.752;2023-03-17T09:22:57;3.05;;;2.22;;
1545;SDS011;766;51.502;9.752;2023-03-17T09:25:26;4.07;;;1.85;;
1545;SDS011;766;51.502;9.752;2023-03-17T09:27:55;3.28;;;1.85;;
1545;SDS011;766;51.502;9.752;2023-03-17T09:30:24;2.53;;;1.55;;
1545;SDS011;766;51.502;9.752;2023-03-17T09:32:52;3.90;;;1.63;;
1545;SDS011;766;51.502;9.752;2023-03-17T09:35:21;3.22;;;1.80;;
1545;SDS011;766;51.502;9.752;2023-03-17T09:37:55;1.90;;;1.40;;
1545;SDS011;766;51.502;9.752;2023-03-17T09:40:27;3.72;;;1.40;;
1545;SDS011;766;51.502;9.752;2023-03-17T09:43:03;2.55;;;1.45;;
1545;SDS011;766;51.502;9.752;2023-03-17T09:45:39;3.85;;;1.60;;
1545;SDS011;766;51.502;9.752;2023-03-17T09:48:11;1.92;;;1.27;;
1545;SDS011;766;51.502;9.752;2023-03-17T09:50:54;2.13;;;1.48;;
1545;SDS011;766;51.502;9.752;2023-03-17T09:53:27;2.58;;;1.83;;
1545;SDS011;766;51.502;9.752;2023-03-17T09:56:00;3.63;;;1.25;;
1545;SDS011;766;51.502;9.752;2023-03-17T09:58:33;4.65;;;1.70;;
1545;SDS011;766;51.502;9.752;2023-03-17T10:01:04;3.17;;;1.52;;
1545;SDS011;766;51.502;9.752;2023-03-17T10:03:38;1.65;;;1.27;;
1545;SDS011;766;51.502;9.752;2023-03-17T10:06:16;2.63;;;1.40;;
1545;SDS011;766;51.502;9.752;2023-03-17T10:09:09;3.22;;;1.48;;
1545;SDS011;766;51.502;9.752;2023-03-17T10:11:45;2.30;;;1.58;;
1545;SDS011;766;51.502;9.752;2023-03-17T10:14:26;4.30;;;1.45;;
1545;SDS011;766;51.502;9.752;2023-03-17T10:17:11;2.15;;;1.35;;
1545;SDS011;766;51.502;9.752;2023-03-17T10:19:43;5.75;;;1.60;;
1545;SDS011;766;51.502;9.752;2023-03-17T10:22:16;2.70;;;1.83;;
1545;SDS011;766;51.502;9.752;2023-03-17T10:24:50;2.17;;;1.50;;
1545;SDS011;766;51.502;9.752;2023-03-17T10:27:21;2.33;;;1.52;;
1545;SDS011;766;51.502;9.752;2023-03-17T10:29:50;2.08;;;1.45;;
1545;SDS011;766;51.502;9.752;2023-03-17T10:32:18;4.47;;;1.63;;
1545;SDS011;766;51.502;9.752;2023-03-17T10:34:47;2.55;;;1.35;;
1545;SDS011;766;51.502;9.752;2023-03-17T10:37:16;2.35;;;1.30;;
1545;SDS011;766;51.502;9.752;2023-03-17T10:39:47;2.70;;;1.23;;
1545;SDS011;766;51.502;9.752;2023-03-17T10:42:22;2.90;;;1.33;;
1545;SDS011;766;51.502;9.752;2023-03-17T10:44:53;2.75;;;1.42;;
1545;SDS011;766;51.502;9.752;2023-03-17T10:47:32;1.25;;;1.00;;
1545;SDS011;766;51.502;9.752;2023-03-17T10:50:15;2.58;;;1.30;;
1545;SDS011;766;51.502;9.752;2023-03-17T10:52:47;7.63;;;1.30;;
1545;SDS011;766;51.502;9.752;2023-03-17T10:55:25;4.55;;;1.50;;
1545;SDS011;766;51.502;9.752;2023-03-17T10:57:59;4.60;;;1.20;;
1545;SDS011;766;51.502;9.752;2023-03-17T11:00:32;2.50;;;1.25;;
1545;SDS011;766;51.502;9.752;2023-03-17T11:03:03;4.25;;;1.40;;
1545;SDS011;766;51.502;9.752;2023-03-17T11:05:38;2.33;;;1.27;;
1545;SDS011;766;51.502;9.752;2023-03-17T11:08:08;2.28;;;1.50;;
1545;SDS011;766;51.502;9.752;2023-03-17T11:10:44;1.95;;;1.10;;
1545;SDS011;766;51.502;9.752;2023-03-17T11:13:15;2.35;;;1.05;;
1545;SDS011;766;51.502;9.752;2023-03-17T11:15:46;2.25;;;1.20;;
1545;SDS011;766;51.502;9.752;2023-03-17T11:18:20;2.20;;;1.20;;
1545;SDS011;766;51.502;9.752;2023-03-17T11:20:54;3.58;;;1.10;;
1545;SDS011;766;51.502;9.752;2023-03-17T11:23:33;2.63;;;1.30;;
1545;SDS011;766;51.502;9.752;2023-03-17T11:29:24;2.78;;;1.70;;
1545;SDS011;766;51.502;9.752;2023-03-17T11:32:02;3.75;;;1.30;;
1545;SDS011;766;51.502;9.752;2023-03-17T11:34:50;2.75;;;1.00;;
1545;SDS011;766;51.502;9.752;2023-03-17T11:37:40;3.85;;;1.10;;
1545;SDS011;766;51.502;9.752;2023-03-17T11:40:24;3.72;;;1.10;;
1545;SDS011;766;51.502;9.752;2023-03-17T11:43:05;1.65;;;1.00;;
1545;SDS011;766;51.502;9.752;2023-03-17T11:45:47;2.47;;;1.40;;
1545;SDS011;766;51.502;9.752;2023-03-17T11:48:22;3.33;;;1.30;;
1545;SDS011;766;51.502;9.752;2023-03-17T11:50:59;2.53;;;1.25;;
1545;SDS011;766;51.502;9.752;2023-03-17T11:53:39;2.55;;;1.33;;
1545;SDS011;766;51.502;9.752;2023-03-17T11:56:28;2.78;;;1.27;;
1545;SDS011;766;51.502;9.752;2023-03-17T11:59:04;3.30;;;1.17;;
1545;SDS011;766;51.502;9.752;2023-03-17T12:01:43;4.82;;;1.30;;
1545;SDS011;766;51.502;9.752;2023-03-17T12:04:22;5.60;;;1.40;;
1545;SDS011;766;51.502;9.752;2023-03-17T12:06:58;2.40;;;1.58;;
1545;SDS011;766;51.502;9.752;2023-03-17T12:09:36;2.25;;;1.38;;
1545;SDS011;766;51.502;9.752;2023-03-17T12:12:08;2.55;;;1.45;;
1545;SDS011;766;51.502;9.752;2023-03-17T12:14:42;1.75;;;1.30;;
1545;SDS011;766;51.502;9.752;2023-03-17T12:17:17;2.83;;;1.40;;
1545;SDS011;766;51.502;9.752;2023-03-17T12:20:02;5.30;;;1.50;;
1545;SDS011;766;51.502;9.752;2023-03-17T12:22:37;2.35;;;1.27;;
1545;SDS011;766;51.502;9.752;2023-03-17T12:25:11;2.88;;;1.00;;
1545;SDS011;766;51.502;9.752;2023-03-17T12:27:45;2.20;;;1.50;;
1545;SDS011;766;51.502;9.752;2023-03-17T12:30:22;2.10;;;1.15;;
1545;SDS011;766;51.502;9.752;2023-03-17T12:32:58;2.20;;;1.60;;
1545;SDS011;766;51.502;9.752;2023-03-17T12:35:37;4.28;;;1.30;;
1545;SDS011;766;51.502;9.752;2023-03-17T12:38:07;3.53;;;1.55;;
1545;SDS011;766;51.502;9.752;2023-03-17T12:40:43;5.22;;;1.60;;
1545;SDS011;766;51.502;9.752;2023-03-17T12:43:46;4.47;;;1.63;;
1545;SDS011;766;51.502;9.752;2023-03-17T12:46:27;2.28;;;1.20;;
1545;SDS011;766;51.502;9.752;2023-03-17T12:49:36;2.05;;;1.30;;
1545;SDS011;766;51.502;9.752;2023-03-17T12:52:19;2.35;;;1.38;;
1545;SDS011;766;51.502;9.752;2023-03-17T12:55:00;4.57;;;1.60;;
1545;SDS011;766;51.502;9.752;2023-03-17T12:57:36;2.47;;;1.50;;
1545;SDS011;766;51.502;9.752;2023-03-17T13:00:14;2.75;;;1.48;;
1545;SDS011;766;51.502;9.752;2023-03-17T13:02:51;2.33;;;1.50;;
1545;SDS011;766;51.502;9.752;2023-03-17T13:05:42;3.20;;;1.50;;
1545;SDS011;766;51.502;9.752;2023-03-17T13:08:14;2.30;;;1.63;;
1545;SDS011;766;51.502;9.752;2023-03-17T13:10:49;5.25;;;1.65;;
1545;SDS011;766;51.502;9.752;2023-03-17T13:13:43;3.70;;;1.80;;
1545;SDS011;766;51.502;9.752;2023-03-17T13:16:25;5.38;;;1.48;;
1545;SDS011;766;51.502;9.752;2023-03-17T13:21:56;2.70;;;1.55;;
1545;SDS011;766;51.502;9.752;2023-03-17T13:27:59;3.03;;;1.40;;
1545;SDS011;766;51.502;9.752;2023-03-17T13:30:55;3.92;;;1.40;;
1545;SDS011;766;51.502;9.752;2023-03-17T13:33:38;6.57;;;1.25;;
1545;SDS011;766;51.502;9.752;2023-03-17T13:36:20;6.15;;;1.52;;
1545;SDS011;766;51.502;9.752;2023-03-17T13:39:00;2.70;;;1.40;;
1545;SDS011;766;51.502;9.752;2023-03-17T13:41:51;3.42;;;1.27;;
1545;SDS011;766;51.502;9.752;2023-03-17T13:45:06;3.47;;;1.33;;
1545;SDS011;766;51.502;9.752;2023-03-17T13:47:47;2.83;;;1.27;;
1545;SDS011;766;51.502;9.752;2023-03-17T13:50:20;2.88;;;1.40;;
1545;SDS011;766;51.502;9.752;2023-03-17T13:52:53;1.52;;;1.17;;
1545;SDS011;766;51.502;9.752;2023-03-17T13:55:35;3.75;;;1.40;;
1545;SDS011;766;51.502;9.752;2023-03-17T14:01:03;1.88;;;1.00;;
1545;SDS011;766;51.502;9.752;2023-03-17T14:03:36;2.35;;;1.23;;
1545;SDS011;766;51.502;9.752;2023-03-17T14:06:09;4.40;;;1.08;;
1545;SDS011;766;51.502;9.752;2023-03-17T14:08:41;3.22;;;1.20;;
1545;SDS011;766;51.502;9.752;2023-03-17T14:14:07;2.17;;;1.10;;
1545;SDS011;766;51.502;9.752;2023-03-17T14:16:58;1.92;;;1.23;;
1545;SDS011;766;51.502;9.752;2023-03-17T14:19:31;3.00;;;1.38;;
1545;SDS011;766;51.502;9.752;2023-03-17T14:22:17;3.05;;;1.40;;
1545;SDS011;766;51.502;9.752;2023-03-17T14:24:49;3.50;;;1.40;;
1545;SDS011;766;51.502;9.752;2023-03-17T14:27:21;3.63;;;1.27;;
1545;SDS011;766;51.502;9.752;2023-03-17T14:29:51;1.35;;;1.00;;
1545;SDS011;766;51.502;9.752;2023-03-17T14:32:20;3.28;;;1.20;;
1545;SDS011;766;51.502;9.752;2023-03-17T14:34:55;3.75;;;1.10;;
1545;SDS011;766;51.502;9.752;2023-03-17T14:37:25;1.73;;;1.10;;
1545;SDS011;766;51.502;9.752;2023-03-17T14:39:55;2.85;;;1.45;;
1545;SDS011;766;51.502;9.752;2023-03-17T14:42:26;2.03;;;1.02;;
1545;SDS011;766;51.502;9.752;2023-03-17T14:45:00;2.25;;;1.30;;
1545;SDS011;766;51.502;9.752;2023-03-17T14:47:33;2.05;;;1.38;;
1545;SDS011;766;51.502;9.752;2023-03-17T14:50:11;2.17;;;1.20;;
1545;SDS011;766;51.502;9.752;2023-03-17T14:52:43;3.35;;;1.05;;
1545;SDS011;766;51.502;9.752;2023-03-17T14:55:12;2.90;;;1.00;;
1545;SDS011;766;51.502;9.752;2023-03-17T14:57:46;2.33;;;1.20;;
1545;SDS011;766;51.502;9.752;2023-03-17T15:00:29;3.25;;;1.50;;
1545;SDS011;766;51.502;9.752;2023-03-17T15:02:59;2.90;;;1.52;;
1545;SDS011;766;51.502;9.752;2023-03-17T15:05:36;1.92;;;1.05;;
1545;SDS011;766;51.502;9.752;2023-03-17T15:11:19;2.33;;;1.23;;
1545;SDS011;766;51.502;9.752;2023-03-17T15:13:53;7.43;;;1.30;;
1545;SDS011;766;51.502;9.752;2023-03-17T15:16:32;3.08;;;1.08;;
1545;SDS011;766;51.502;9.752;2023-03-17T15:19:03;2.90;;;0.95;;
1545;SDS011;766;51.502;9.752;2023-03-17T15:21:36;3.22;;;1.00;;
1545;SDS011;766;51.502;9.752;2023-03-17T15:24:27;2.75;;;1.20;;
1545;SDS011;766;51.502;9.752;2023-03-17T15:27:01;5.13;;;1.40;;
1545;SDS011;766;51.502;9.752;2023-03-17T15:29:32;1.75;;;1.05;;
1545;SDS011;766;51.502;9.752;2023-03-17T15:32:05;2.30;;;0.90;;
1545;SDS011;766;51.502;9.752;2023-03-17T15:34:38;3.53;;;1.13;;
1545;SDS011;766;51.502;9.752;2023-03-17T15:37:16;4.57;;;1.10;;
1545;SDS011;766;51.502;9.752;2023-03-17T15:39:46;1.13;;;0.70;;
1545;SDS011;766;51.502;9.752;2023-03-17T15:42:16;1.17;;;0.88;;
1545;SDS011;766;51.502;9.752;2023-03-17T15:44:47;3.70;;;1.23;;
1545;SDS011;766;51.502;9.752;2023-03-17T15:47:16;3.08;;;1.17;;
1545;SDS011;766;51.502;9.752;2023-03-17T15:49:47;4.20;;;1.00;;
1545;SDS011;766;51.502;9.752;2023-03-17T15:52:19;2.92;;;1.10;;
1545;SDS011;766;51.502;9.752;2023-03-17T15:54:50;3.30;;;1.30;;
1545;SDS011;766;51.502;9.752;2023-03-17T15:57:20;3.47;;;1.30;;
1545;SDS011;766;51.502;9.752;2023-03-17T15:59:50;2.88;;;1.30;;
1545;SDS011;766;51.502;9.752;2023-03-17T16:02:24;2.63;;;1.30;;
1545;SDS011;766;51.502;9.752;2023-03-17T16:04:54;2.60;;;1.30;;
1545;SDS011;766;51.502;9.752;2023-03-17T16:07:24;5.07;;;1.73;;
1545;SDS011;766;51.502;9.752;2023-03-17T16:09:52;3.85;;;1.27;;
1545;SDS011;766;51.502;9.752;2023-03-17T16:12:20;1.95;;;1.10;;
1545;SDS011;766;51.502;9.752;2023-03-17T16:14:50;4.20;;;1.42;;
1545;SDS011;766;51.502;9.752;2023-03-17T16:17:21;3.97;;;1.10;;
1545;SDS011;766;51.502;9.752;2023-03-17T16:19:54;4.03;;;1.13;;